sensor_id;sensor_type;location;lat;lon;timestamp;P1;durP1;ratioP1;P2;durP2;ratioP2
5937;SDS011;2994;51.220;4.412;2022-10-16T00:01:09;2.20;;;2.00;;
5937;SDS011;2994;51.220;4.412;2022-10-16T00:03:37;2.60;;;1.40;;
5937;SDS011;2994;51.220;4.412;2022-10-16T00:06:09;1.70;;;1.60;;
5937;SDS011;2994;51.220;4.412;2022-10-16T00:08:36;2.57;;;1.80;;
5937;SDS011;2994;51.220;4.412;2022-10-16T00:11:04;3.70;;;1.80;;
5937;SDS011;2994;51.220;4.412;2022-10-16T00:13:38;2.40;;;1.43;;
5937;SDS011;2994;51.220;4.412;2022-10-16T00:16:05;2.40;;;1.50;;
5937;SDS011;2994;51.220;4.412;2022-10-16T00:18:34;1.97;;;1.67;;
5937;SDS011;2994;51.220;4.412;2022-10-16T00:21:06;1.47;;;1.37;;
5937;SDS011;2994;51.220;4.412;2022-10-16T00:23:45;1.67;;;1.57;;
5937;SDS011;2994;51.220;4.412;2022-10-16T00:26:12;2.20;;;1.57;;
5937;SDS011;2994;51.220;4.412;2022-10-16T00:28:40;2.07;;;1.50;;
5937;SDS011;2994;51.220;4.412;2022-10-16T00:31:07;1.97;;;1.77;;
5937;SDS011;2994;51.220;4.412;2022-10-16T00:33:36;1.90;;;1.37;;
5937;SDS011;2994;51.220;4.412;2022-10-16T00:36:03;3.20;;;1.77;;
5937;SDS011;2994;51.220;4.412;2022-10-16T00:38:30;1.40;;;1.30;;
5937;SDS011;2994;51.220;4.412;2022-10-16T00:40:56;1.70;;;1.43;;
5937;SDS011;2994;51.220;4.412;2022-10-16T00:46:23;1.53;;;1.30;;
5937;SDS011;2994;51.220;4.412;2022-10-16T00:48:57;2.07;;;1.37;;
5937;SDS011;2994;51.220;4.412;2022-10-16T00:51:41;2.13;;;1.77;;
5937;SDS011;2994;51.220;4.412;2022-10-16T00:54:16;3.90;;;1.70;;
5937;SDS011;2994;51.220;4.412;2022-10-16T00:56:44;1.50;;;1.40;;
5937;SDS011;2994;51.220;4.412;2022-10-16T00:59:16;1.37;;;1.20;;
5937;SDS011;2994;51.220;4.412;2022-10-16T01:01:44;1.60;;;1.43;;
5937;SDS011;2994;51.220;4.412;2022-10-16T01:04:10;1.53;;;1.27;;
5937;SDS011;2994;51.220;4.412;2022-10-16T01:12:49;1.23;;;1.13;;
5937;SDS011;2994;51.220;4.412;2022-10-16T01:15:25;4.73;;;1.93;;
5937;SDS011;2994;51.220;4.412;2022-10-16T01:18:13;3.33;;;1.53;;
5937;SDS011;2994;51.220;4.412;2022-10-16T01:20:44;2.20;;;1.20;;
5937;SDS011;2994;51.220;4.412;2022-10-16T01:32:37;1.50;;;1.20;;
5937;SDS011;2994;51.220;4.412;2022-10-16T01:35:09;2.33;;;1.27;;
5937;SDS011;2994;51.220;4.412;2022-10-16T01:37:35;2.50;;;1.50;;
5937;SDS011;2994;51.220;4.412;2022-10-16T01:40:12;1.63;;;1.43;;
5937;SDS011;2994;51.220;4.412;2022-10-16T01:42:40;1.60;;;1.30;;
5937;SDS011;2994;51.220;4.412;2022-10-16T01:45:08;1.67;;;1.23;;
5937;SDS011;2994;51.220;4.412;2022-10-16T01:47:38;1.50;;;1.30;;
5937;SDS011;2994;51.220;4.412;2022-10-16T01:50:05;3.00;;;1.70;;
5937;SDS011;2994;51.220;4.412;2022-10-16T01:52:34;1.17;;;1.07;;
5937;SDS011;2994;51.220;4.412;2022-10-16T01:55:02;1.50;;;1.40;;
5937;SDS011;2994;51.220;4.412;2022-10-16T01:57:30;2.30;;;1.50;;
5937;SDS011;2994;51.220;4.412;2022-10-16T01:59:58;2.63;;;1.13;;
5937;SDS011;2994;51.220;4.412;2022-10-16T02:02:29;2.00;;;1.10;;
5937;SDS011;2994;51.220;4.412;2022-10-16T02:05:02;2.13;;;1.30;;
5937;SDS011;2994;51.220;4.412;2022-10-16T02:07:34;1.33;;;1.07;;
5937;SDS011;2994;51.220;4.412;2022-10-16T02:09:59;1.40;;;1.30;;
5937;SDS011;2994;51.220;4.412;2022-10-16T02:12:26;2.80;;;1.30;;
5937;SDS011;2994;51.220;4.412;2022-10-16T02:14:54;1.57;;;1.13;;
5937;SDS011;2994;51.220;4.412;2022-10-16T02:17:20;2.07;;;1.70;;
5937;SDS011;2994;51.220;4.412;2022-10-16T02:19:47;1.33;;;1.13;;
5937;SDS011;2994;51.220;4.412;2022-10-16T02:22:18;1.47;;;1.30;;
5937;SDS011;2994;51.220;4.412;2022-10-16T02:27:42;1.60;;;1.40;;
5937;SDS011;2994;51.220;4.412;2022-10-16T02:30:30;4.10;;;1.30;;
5937;SDS011;2994;51.220;4.412;2022-10-16T02:33:00;2.23;;;1.23;;
5937;SDS011;2994;51.220;4.412;2022-10-16T02:35:27;1.67;;;1.40;;
5937;SDS011;2994;51.220;4.412;2022-10-16T02:37:54;1.80;;;1.50;;
5937;SDS011;2994;51.220;4.412;2022-10-16T02:40:21;2.23;;;1.53;;
5937;SDS011;2994;51.220;4.412;2022-10-16T02:42:49;1.53;;;1.43;;
5937;SDS011;2994;51.220;4.412;2022-10-16T02:45:16;2.47;;;1.50;;
5937;SDS011;2994;51.220;4.412;2022-10-16T02:47:43;1.70;;;1.10;;
5937;SDS011;2994;51.220;4.412;2022-10-16T02:50:08;1.80;;;1.30;;
5937;SDS011;2994;51.220;4.412;2022-10-16T02:52:34;2.97;;;1.70;;
5937;SDS011;2994;51.220;4.412;2022-10-16T02:54:59;4.27;;;1.53;;
5937;SDS011;2994;51.220;4.412;2022-10-16T02:57:24;2.40;;;1.47;;
5937;SDS011;2994;51.220;4.412;2022-10-16T02:59:50;2.93;;;1.47;;
5937;SDS011;2994;51.220;4.412;2022-10-16T03:02:15;3.00;;;1.87;;
5937;SDS011;2994;51.220;4.412;2022-10-16T03:04:41;2.00;;;1.50;;
5937;SDS011;2994;51.220;4.412;2022-10-16T03:07:06;1.80;;;1.70;;
5937;SDS011;2994;51.220;4.412;2022-10-16T03:09:32;2.90;;;2.03;;
5937;SDS011;2994;51.220;4.412;2022-10-16T03:11:58;2.60;;;1.97;;
5937;SDS011;2994;51.220;4.412;2022-10-16T03:14:23;1.97;;;1.77;;
5937;SDS011;2994;51.220;4.412;2022-10-16T03:16:49;1.57;;;1.47;;
5937;SDS011;2994;51.220;4.412;2022-10-16T03:19:16;1.60;;;1.40;;
5937;SDS011;2994;51.220;4.412;2022-10-16T03:21:42;1.80;;;1.47;;
5937;SDS011;2994;51.220;4.412;2022-10-16T03:24:11;3.53;;;2.00;;
5937;SDS011;2994;51.220;4.412;2022-10-16T03:26:36;2.73;;;1.63;;
5937;SDS011;2994;51.220;4.412;2022-10-16T03:29:02;3.00;;;1.93;;
5937;SDS011;2994;51.220;4.412;2022-10-16T03:31:28;4.77;;;1.90;;
5937;SDS011;2994;51.220;4.412;2022-10-16T03:33:54;2.90;;;1.63;;
5937;SDS011;2994;51.220;4.412;2022-10-16T03:36:19;2.23;;;1.83;;
5937;SDS011;2994;51.220;4.412;2022-10-16T03:38:45;2.27;;;1.47;;
5937;SDS011;2994;51.220;4.412;2022-10-16T03:41:10;2.77;;;1.73;;
5937;SDS011;2994;51.220;4.412;2022-10-16T03:43:35;2.43;;;1.70;;
5937;SDS011;2994;51.220;4.412;2022-10-16T03:46:01;1.97;;;1.80;;
5937;SDS011;2994;51.220;4.412;2022-10-16T03:48:35;5.70;;;2.13;;
5937;SDS011;2994;51.220;4.412;2022-10-16T03:51:04;2.50;;;1.77;;
5937;SDS011;2994;51.220;4.412;2022-10-16T03:53:30;2.80;;;1.80;;
5937;SDS011;2994;51.220;4.412;2022-10-16T03:55:58;1.70;;;1.60;;
5937;SDS011;2994;51.220;4.412;2022-10-16T03:58:25;1.93;;;1.83;;
5937;SDS011;2994;51.220;4.412;2022-10-16T04:00:50;2.70;;;2.30;;
5937;SDS011;2994;51.220;4.412;2022-10-16T04:03:24;3.37;;;1.97;;
5937;SDS011;2994;51.220;4.412;2022-10-16T04:05:52;3.33;;;2.17;;
5937;SDS011;2994;51.220;4.412;2022-10-16T04:08:17;3.40;;;2.50;;
5937;SDS011;2994;51.220;4.412;2022-10-16T04:10:43;2.27;;;1.80;;
5937;SDS011;2994;51.220;4.412;2022-10-16T04:13:09;1.50;;;1.40;;
5937;SDS011;2994;51.220;4.412;2022-10-16T04:15:35;2.07;;;1.87;;
5937;SDS011;2994;51.220;4.412;2022-10-16T04:18:01;1.80;;;1.70;;
5937;SDS011;2994;51.220;4.412;2022-10-16T04:20:28;2.30;;;1.80;;
5937;SDS011;2994;51.220;4.412;2022-10-16T04:22:55;3.40;;;2.00;;
5937;SDS011;2994;51.220;4.412;2022-10-16T04:25:25;2.90;;;2.10;;
5937;SDS011;2994;51.220;4.412;2022-10-16T04:27:53;2.57;;;1.70;;
5937;SDS011;2994;51.220;4.412;2022-10-16T04:30:19;4.17;;;2.67;;
5937;SDS011;2994;51.220;4.412;2022-10-16T04:32:51;3.07;;;1.80;;
5937;SDS011;2994;51.220;4.412;2022-10-16T04:35:20;2.07;;;1.70;;
5937;SDS011;2994;51.220;4.412;2022-10-16T04:37:46;3.10;;;2.30;;
5937;SDS011;2994;51.220;4.412;2022-10-16T04:40:12;2.67;;;1.67;;
5937;SDS011;2994;51.220;4.412;2022-10-16T04:42:39;1.73;;;1.63;;
5937;SDS011;2994;51.220;4.412;2022-10-16T04:45:05;1.97;;;1.80;;
5937;SDS011;2994;51.220;4.412;2022-10-16T04:47:32;2.27;;;1.70;;
5937;SDS011;2994;51.220;4.412;2022-10-16T04:49:58;2.13;;;1.90;;
5937;SDS011;2994;51.220;4.412;2022-10-16T04:52:26;2.40;;;2.20;;
5937;SDS011;2994;51.220;4.412;2022-10-16T04:54:51;2.50;;;1.80;;
5937;SDS011;2994;51.220;4.412;2022-10-16T04:57:20;2.47;;;2.27;;
5937;SDS011;2994;51.220;4.412;2022-10-16T04:59:45;1.83;;;1.67;;
5937;SDS011;2994;51.220;4.412;2022-10-16T05:02:11;1.90;;;1.80;;
5937;SDS011;2994;51.220;4.412;2022-10-16T05:04:36;3.63;;;2.20;;
5937;SDS011;2994;51.220;4.412;2022-10-16T05:07:02;4.67;;;2.20;;
5937;SDS011;2994;51.220;4.412;2022-10-16T05:09:28;3.77;;;2.00;;
5937;SDS011;2994;51.220;4.412;2022-10-16T05:11:54;6.40;;;2.23;;
5937;SDS011;2994;51.220;4.412;2022-10-16T05:14:19;3.37;;;1.87;;
5937;SDS011;2994;51.220;4.412;2022-10-16T05:16:47;3.53;;;1.60;;
5937;SDS011;2994;51.220;4.412;2022-10-16T05:19:15;3.50;;;1.77;;
5937;SDS011;2994;51.220;4.412;2022-10-16T05:21:41;3.10;;;1.90;;
5937;SDS011;2994;51.220;4.412;2022-10-16T05:24:07;3.70;;;2.30;;
5937;SDS011;2994;51.220;4.412;2022-10-16T05:26:32;2.90;;;1.87;;
5937;SDS011;2994;51.220;4.412;2022-10-16T05:29:01;2.90;;;1.80;;
5937;SDS011;2994;51.220;4.412;2022-10-16T05:31:29;5.27;;;2.17;;
5937;SDS011;2994;51.220;4.412;2022-10-16T05:34:00;2.80;;;1.93;;
5937;SDS011;2994;51.220;4.412;2022-10-16T05:36:26;3.17;;;2.37;;
5937;SDS011;2994;51.220;4.412;2022-10-16T05:38:53;2.90;;;2.57;;
5937;SDS011;2994;51.220;4.412;2022-10-16T05:41:24;3.63;;;1.93;;
5937;SDS011;2994;51.220;4.412;2022-10-16T05:43:51;4.17;;;1.87;;
5937;SDS011;2994;51.220;4.412;2022-10-16T05:46:17;2.23;;;1.90;;
5937;SDS011;2994;51.220;4.412;2022-10-16T05:48:44;3.07;;;1.83;;
5937;SDS011;2994;51.220;4.412;2022-10-16T05:51:17;2.57;;;1.80;;
5937;SDS011;2994;51.220;4.412;2022-10-16T05:53:43;1.80;;;1.60;;
5937;SDS011;2994;51.220;4.412;2022-10-16T05:56:09;5.33;;;2.30;;
5937;SDS011;2994;51.220;4.412;2022-10-16T05:58:37;2.30;;;2.00;;
5937;SDS011;2994;51.220;4.412;2022-10-16T06:03:41;2.60;;;2.03;;
5937;SDS011;2994;51.220;4.412;2022-10-16T06:08:42;2.80;;;2.03;;
5937;SDS011;2994;51.220;4.412;2022-10-16T06:11:11;2.13;;;1.93;;
5937;SDS011;2994;51.220;4.412;2022-10-16T06:14:00;2.60;;;2.40;;
5937;SDS011;2994;51.220;4.412;2022-10-16T06:16:28;5.37;;;2.80;;
5937;SDS011;2994;51.220;4.412;2022-10-16T06:18:54;3.80;;;2.50;;
5937;SDS011;2994;51.220;4.412;2022-10-16T06:21:25;4.20;;;1.73;;
5937;SDS011;2994;51.220;4.412;2022-10-16T06:23:51;3.10;;;2.50;;
5937;SDS011;2994;51.220;4.412;2022-10-16T06:26:18;2.80;;;1.93;;
5937;SDS011;2994;51.220;4.412;2022-10-16T06:28:46;4.20;;;2.50;;
5937;SDS011;2994;51.220;4.412;2022-10-16T06:31:12;2.87;;;1.87;;
5937;SDS011;2994;51.220;4.412;2022-10-16T06:33:38;2.40;;;1.90;;
5937;SDS011;2994;51.220;4.412;2022-10-16T06:36:05;3.30;;;1.90;;
5937;SDS011;2994;51.220;4.412;2022-10-16T06:38:33;2.60;;;2.23;;
5937;SDS011;2994;51.220;4.412;2022-10-16T06:40:59;3.60;;;2.27;;
5937;SDS011;2994;51.220;4.412;2022-10-16T06:43:24;3.63;;;2.70;;
5937;SDS011;2994;51.220;4.412;2022-10-16T06:45:54;2.93;;;2.43;;
5937;SDS011;2994;51.220;4.412;2022-10-16T06:48:20;3.33;;;2.07;;
5937;SDS011;2994;51.220;4.412;2022-10-16T06:53:49;3.77;;;2.53;;
5937;SDS011;2994;51.220;4.412;2022-10-16T06:56:17;2.73;;;2.10;;
5937;SDS011;2994;51.220;4.412;2022-10-16T06:58:44;3.60;;;2.70;;
5937;SDS011;2994;51.220;4.412;2022-10-16T07:01:11;4.00;;;2.20;;
5937;SDS011;2994;51.220;4.412;2022-10-16T07:03:41;3.80;;;2.43;;
5937;SDS011;2994;51.220;4.412;2022-10-16T07:06:09;6.43;;;2.50;;
5937;SDS011;2994;51.220;4.412;2022-10-16T07:08:36;4.33;;;2.20;;
5937;SDS011;2994;51.220;4.412;2022-10-16T07:11:05;4.30;;;2.03;;
5937;SDS011;2994;51.220;4.412;2022-10-16T07:13:38;2.77;;;2.30;;
5937;SDS011;2994;51.220;4.412;2022-10-16T07:16:13;5.13;;;3.33;;
5937;SDS011;2994;51.220;4.412;2022-10-16T07:18:40;3.60;;;2.80;;
5937;SDS011;2994;51.220;4.412;2022-10-16T07:21:11;2.83;;;2.10;;
5937;SDS011;2994;51.220;4.412;2022-10-16T07:23:39;3.90;;;2.70;;
5937;SDS011;2994;51.220;4.412;2022-10-16T07:26:05;2.50;;;2.30;;
5937;SDS011;2994;51.220;4.412;2022-10-16T07:28:31;2.87;;;2.10;;
5937;SDS011;2994;51.220;4.412;2022-10-16T07:31:04;4.07;;;2.40;;
5937;SDS011;2994;51.220;4.412;2022-10-16T07:33:31;3.17;;;2.00;;
5937;SDS011;2994;51.220;4.412;2022-10-16T07:35:57;3.50;;;1.90;;
5937;SDS011;2994;51.220;4.412;2022-10-16T07:38:23;3.00;;;2.20;;
5937;SDS011;2994;51.220;4.412;2022-10-16T07:40:55;2.93;;;2.37;;
5937;SDS011;2994;51.220;4.412;2022-10-16T07:43:21;5.47;;;2.17;;
5937;SDS011;2994;51.220;4.412;2022-10-16T07:45:47;4.70;;;2.20;;
5937;SDS011;2994;51.220;4.412;2022-10-16T07:48:14;3.43;;;2.03;;
5937;SDS011;2994;51.220;4.412;2022-10-16T07:50:40;3.10;;;2.13;;
5937;SDS011;2994;51.220;4.412;2022-10-16T07:53:06;3.00;;;2.30;;
5937;SDS011;2994;51.220;4.412;2022-10-16T07:55:31;2.73;;;2.50;;
5937;SDS011;2994;51.220;4.412;2022-10-16T07:57:57;3.50;;;2.10;;
5937;SDS011;2994;51.220;4.412;2022-10-16T08:00:22;2.30;;;1.80;;
5937;SDS011;2994;51.220;4.412;2022-10-16T08:02:47;3.90;;;2.37;;
5937;SDS011;2994;51.220;4.412;2022-10-16T08:05:13;3.10;;;2.07;;
5937;SDS011;2994;51.220;4.412;2022-10-16T08:07:38;3.53;;;2.47;;
5937;SDS011;2994;51.220;4.412;2022-10-16T08:10:04;2.90;;;2.60;;
5937;SDS011;2994;51.220;4.412;2022-10-16T08:12:30;4.77;;;2.43;;
5937;SDS011;2994;51.220;4.412;2022-10-16T08:14:55;3.77;;;2.60;;
5937;SDS011;2994;51.220;4.412;2022-10-16T08:17:20;2.17;;;1.97;;
5937;SDS011;2994;51.220;4.412;2022-10-16T08:19:46;2.63;;;2.10;;
5937;SDS011;2994;51.220;4.412;2022-10-16T08:22:13;4.17;;;2.40;;
5937;SDS011;2994;51.220;4.412;2022-10-16T08:24:38;4.60;;;2.10;;
5937;SDS011;2994;51.220;4.412;2022-10-16T08:27:07;2.90;;;1.73;;
5937;SDS011;2994;51.220;4.412;2022-10-16T08:29:34;2.33;;;2.13;;
5937;SDS011;2994;51.220;4.412;2022-10-16T08:31:59;2.27;;;2.07;;
5937;SDS011;2994;51.220;4.412;2022-10-16T08:34:24;2.27;;;1.93;;
5937;SDS011;2994;51.220;4.412;2022-10-16T08:36:52;4.13;;;2.40;;
5937;SDS011;2994;51.220;4.412;2022-10-16T08:39:18;2.73;;;1.97;;
5937;SDS011;2994;51.220;4.412;2022-10-16T08:47:18;2.10;;;1.90;;
5937;SDS011;2994;51.220;4.412;2022-10-16T08:52:25;5.43;;;1.90;;
5937;SDS011;2994;51.220;4.412;2022-10-16T08:54:55;6.17;;;2.30;;
5937;SDS011;2994;51.220;4.412;2022-10-16T08:57:22;3.63;;;1.70;;
5937;SDS011;2994;51.220;4.412;2022-10-16T08:59:50;3.47;;;1.57;;
5937;SDS011;2994;51.220;4.412;2022-10-16T09:05:22;4.13;;;2.40;;
5937;SDS011;2994;51.220;4.412;2022-10-16T09:13:34;3.57;;;1.87;;
5937;SDS011;2994;51.220;4.412;2022-10-16T09:21:49;2.20;;;1.77;;
5937;SDS011;2994;51.220;4.412;2022-10-16T09:24:17;5.77;;;1.97;;
5937;SDS011;2994;51.220;4.412;2022-10-16T09:26:45;4.73;;;1.90;;
5937;SDS011;2994;51.220;4.412;2022-10-16T09:29:11;10.40;;;2.60;;
5937;SDS011;2994;51.220;4.412;2022-10-16T09:31:38;4.17;;;2.27;;
5937;SDS011;2994;51.220;4.412;2022-10-16T09:34:03;3.47;;;2.00;;
5937;SDS011;2994;51.220;4.412;2022-10-16T09:36:35;4.63;;;2.10;;
5937;SDS011;2994;51.220;4.412;2022-10-16T09:39:07;4.10;;;1.80;;
5937;SDS011;2994;51.220;4.412;2022-10-16T09:41:34;4.83;;;2.17;;
5937;SDS011;2994;51.220;4.412;2022-10-16T09:44:02;6.10;;;2.17;;
5937;SDS011;2994;51.220;4.412;2022-10-16T09:49:01;3.17;;;1.80;;
5937;SDS011;2994;51.220;4.412;2022-10-16T09:54:21;4.60;;;1.93;;
5937;SDS011;2994;51.220;4.412;2022-10-16T09:56:46;3.70;;;2.03;;
5937;SDS011;2994;51.220;4.412;2022-10-16T09:59:20;5.13;;;2.00;;
5937;SDS011;2994;51.220;4.412;2022-10-16T10:01:49;5.97;;;2.40;;
5937;SDS011;2994;51.220;4.412;2022-10-16T10:04:20;7.27;;;2.43;;
5937;SDS011;2994;51.220;4.412;2022-10-16T10:11:54;4.87;;;2.13;;
5937;SDS011;2994;51.220;4.412;2022-10-16T10:14:22;5.40;;;1.77;;
5937;SDS011;2994;51.220;4.412;2022-10-16T10:19:29;2.80;;;2.10;;
5937;SDS011;2994;51.220;4.412;2022-10-16T10:22:23;3.50;;;2.10;;
5937;SDS011;2994;51.220;4.412;2022-10-16T10:30:59;2.93;;;1.90;;
5937;SDS011;2994;51.220;4.412;2022-10-16T10:36:40;4.70;;;2.40;;
5937;SDS011;2994;51.220;4.412;2022-10-16T10:39:18;6.83;;;2.50;;
5937;SDS011;2994;51.220;4.412;2022-10-16T10:44:22;4.63;;;2.20;;
5937;SDS011;2994;51.220;4.412;2022-10-16T10:50:28;5.10;;;2.10;;
5937;SDS011;2994;51.220;4.412;2022-10-16T10:53:21;3.30;;;1.90;;
5937;SDS011;2994;51.220;4.412;2022-10-16T11:01:14;3.60;;;1.73;;
5937;SDS011;2994;51.220;4.412;2022-10-16T11:04:01;5.80;;;2.43;;
5937;SDS011;2994;51.220;4.412;2022-10-16T11:06:52;3.43;;;2.30;;
5937;SDS011;2994;51.220;4.412;2022-10-16T11:09:28;3.83;;;2.60;;
5937;SDS011;2994;51.220;4.412;2022-10-16T11:12:00;5.60;;;2.30;;
5937;SDS011;2994;51.220;4.412;2022-10-16T11:17:08;4.57;;;2.27;;
5937;SDS011;2994;51.220;4.412;2022-10-16T11:19:57;5.33;;;1.77;;
5937;SDS011;2994;51.220;4.412;2022-10-16T11:30:27;5.43;;;2.07;;
5937;SDS011;2994;51.220;4.412;2022-10-16T11:35:37;7.83;;;2.80;;
5937;SDS011;2994;51.220;4.412;2022-10-16T11:41:42;4.27;;;1.87;;
5937;SDS011;2994;51.220;4.412;2022-10-16T11:44:06;4.00;;;1.80;;
5937;SDS011;2994;51.220;4.412;2022-10-16T11:50:03;4.20;;;1.87;;
5937;SDS011;2994;51.220;4.412;2022-10-16T11:55:24;2.90;;;1.70;;
5937;SDS011;2994;51.220;4.412;2022-10-16T11:58:01;3.00;;;1.90;;
5937;SDS011;2994;51.220;4.412;2022-10-16T12:00:53;3.57;;;1.90;;
5937;SDS011;2994;51.220;4.412;2022-10-16T12:08:55;3.97;;;1.90;;
5937;SDS011;2994;51.220;4.412;2022-10-16T12:11:31;4.17;;;1.80;;
5937;SDS011;2994;51.220;4.412;2022-10-16T12:16:38;4.90;;;2.00;;
5937;SDS011;2994;51.220;4.412;2022-10-16T12:19:15;5.43;;;2.00;;
5937;SDS011;2994;51.220;4.412;2022-10-16T12:21:42;3.47;;;1.93;;
5937;SDS011;2994;51.220;4.412;2022-10-16T12:26:54;2.50;;;1.67;;
5937;SDS011;2994;51.220;4.412;2022-10-16T12:31:58;2.50;;;1.90;;
5937;SDS011;2994;51.220;4.412;2022-10-16T12:34:57;7.00;;;2.43;;
5937;SDS011;2994;51.220;4.412;2022-10-16T12:39:52;6.70;;;1.90;;
5937;SDS011;2994;51.220;4.412;2022-10-16T12:42:20;3.57;;;2.37;;
5937;SDS011;2994;51.220;4.412;2022-10-16T12:48:21;3.20;;;1.70;;
5937;SDS011;2994;51.220;4.412;2022-10-16T12:50:47;3.33;;;1.60;;
5937;SDS011;2994;51.220;4.412;2022-10-16T12:55:48;3.23;;;1.90;;
5937;SDS011;2994;51.220;4.412;2022-10-16T12:58:25;2.70;;;1.57;;
5937;SDS011;2994;51.220;4.412;2022-10-16T13:01:08;2.30;;;1.60;;
5937;SDS011;2994;51.220;4.412;2022-10-16T13:30:12;1.93;;;1.20;;
5937;SDS011;2994;51.220;4.412;2022-10-16T13:32:43;3.20;;;1.43;;
5937;SDS011;2994;51.220;4.412;2022-10-16T13:35:18;4.57;;;1.80;;
5937;SDS011;2994;51.220;4.412;2022-10-16T13:37:49;2.30;;;1.00;;
5937;SDS011;2994;51.220;4.412;2022-10-16T13:40:22;5.27;;;1.33;;
5937;SDS011;2994;51.220;4.412;2022-10-16T13:42:50;1.93;;;1.23;;
5937;SDS011;2994;51.220;4.412;2022-10-16T13:45:21;2.87;;;1.27;;
5937;SDS011;2994;51.220;4.412;2022-10-16T13:47:48;2.60;;;1.77;;
5937;SDS011;2994;51.220;4.412;2022-10-16T13:50:15;2.07;;;1.13;;
5937;SDS011;2994;51.220;4.412;2022-10-16T13:52:42;2.33;;;1.40;;
5937;SDS011;2994;51.220;4.412;2022-10-16T13:55:17;3.63;;;1.17;;
5937;SDS011;2994;51.220;4.412;2022-10-16T13:57:43;2.33;;;1.20;;
5937;SDS011;2994;51.220;4.412;2022-10-16T14:00:27;2.57;;;1.17;;
5937;SDS011;2994;51.220;4.412;2022-10-16T14:03:15;1.47;;;0.97;;
5937;SDS011;2994;51.220;4.412;2022-10-16T14:05:48;1.93;;;0.80;;
5937;SDS011;2994;51.220;4.412;2022-10-16T14:08:16;1.73;;;1.03;;
5937;SDS011;2994;51.220;4.412;2022-10-16T14:10:42;2.33;;;0.97;;
5937;SDS011;2994;51.220;4.412;2022-10-16T14:13:07;1.70;;;1.00;;
5937;SDS011;2994;51.220;4.412;2022-10-16T14:15:40;2.37;;;1.10;;
5937;SDS011;2994;51.220;4.412;2022-10-16T14:18:21;3.33;;;1.43;;
5937;SDS011;2994;51.220;4.412;2022-10-16T14:20:49;1.63;;;1.13;;
5937;SDS011;2994;51.220;4.412;2022-10-16T14:23:19;1.63;;;1.53;;
5937;SDS011;2994;51.220;4.412;2022-10-16T14:25:54;2.70;;;1.27;;
5937;SDS011;2994;51.220;4.412;2022-10-16T14:28:30;3.83;;;1.40;;
5937;SDS011;2994;51.220;4.412;2022-10-16T14:30:56;1.77;;;1.20;;
5937;SDS011;2994;51.220;4.412;2022-10-16T14:33:25;2.80;;;1.37;;
5937;SDS011;2994;51.220;4.412;2022-10-16T14:38:41;1.63;;;1.07;;
5937;SDS011;2994;51.220;4.412;2022-10-16T14:41:13;3.97;;;1.60;;
5937;SDS011;2994;51.220;4.412;2022-10-16T14:43:41;2.80;;;1.40;;
5937;SDS011;2994;51.220;4.412;2022-10-16T14:46:19;3.70;;;1.67;;
5937;SDS011;2994;51.220;4.412;2022-10-16T14:48:46;3.63;;;2.00;;
5937;SDS011;2994;51.220;4.412;2022-10-16T14:51:16;3.93;;;2.07;;
5937;SDS011;2994;51.220;4.412;2022-10-16T14:53:42;2.87;;;1.53;;
5937;SDS011;2994;51.220;4.412;2022-10-16T14:56:09;3.70;;;1.40;;
5937;SDS011;2994;51.220;4.412;2022-10-16T14:58:41;2.90;;;1.90;;
5937;SDS011;2994;51.220;4.412;2022-10-16T15:01:08;3.40;;;1.70;;
5937;SDS011;2994;51.220;4.412;2022-10-16T15:03:36;2.27;;;1.80;;
5937;SDS011;2994;51.220;4.412;2022-10-16T15:06:01;2.87;;;1.43;;
5937;SDS011;2994;51.220;4.412;2022-10-16T15:08:26;2.60;;;1.53;;
5937;SDS011;2994;51.220;4.412;2022-10-16T15:10:52;3.60;;;2.00;;
5937;SDS011;2994;51.220;4.412;2022-10-16T15:13:17;3.60;;;1.60;;
5937;SDS011;2994;51.220;4.412;2022-10-16T15:15:44;2.70;;;1.57;;
5937;SDS011;2994;51.220;4.412;2022-10-16T15:18:10;3.50;;;1.90;;
5937;SDS011;2994;51.220;4.412;2022-10-16T15:20:38;3.00;;;1.83;;
5937;SDS011;2994;51.220;4.412;2022-10-16T15:23:05;1.97;;;1.77;;
5937;SDS011;2994;51.220;4.412;2022-10-16T15:25:40;3.50;;;2.17;;
5937;SDS011;2994;51.220;4.412;2022-10-16T15:28:08;2.43;;;1.83;;
5937;SDS011;2994;51.220;4.412;2022-10-16T15:30:38;2.43;;;1.90;;
5937;SDS011;2994;51.220;4.412;2022-10-16T15:33:04;5.73;;;2.20;;
5937;SDS011;2994;51.220;4.412;2022-10-16T15:35:30;2.63;;;2.17;;
5937;SDS011;2994;51.220;4.412;2022-10-16T15:37:56;1.93;;;1.73;;
5937;SDS011;2994;51.220;4.412;2022-10-16T15:40:23;2.57;;;1.97;;
5937;SDS011;2994;51.220;4.412;2022-10-16T15:42:48;3.23;;;1.80;;
5937;SDS011;2994;51.220;4.412;2022-10-16T15:45:15;2.10;;;1.90;;
5937;SDS011;2994;51.220;4.412;2022-10-16T15:47:41;4.30;;;2.20;;
5937;SDS011;2994;51.220;4.412;2022-10-16T15:50:08;2.90;;;2.10;;
5937;SDS011;2994;51.220;4.412;2022-10-16T15:52:35;2.97;;;2.30;;
5937;SDS011;2994;51.220;4.412;2022-10-16T15:55:01;3.60;;;2.37;;
5937;SDS011;2994;51.220;4.412;2022-10-16T15:57:29;4.40;;;2.50;;
5937;SDS011;2994;51.220;4.412;2022-10-16T15:59:56;2.30;;;2.03;;
5937;SDS011;2994;51.220;4.412;2022-10-16T16:02:21;3.00;;;2.40;;
5937;SDS011;2994;51.220;4.412;2022-10-16T16:04:47;5.00;;;2.40;;
5937;SDS011;2994;51.220;4.412;2022-10-16T16:07:12;3.43;;;3.17;;
5937;SDS011;2994;51.220;4.412;2022-10-16T16:09:41;3.70;;;2.77;;
5937;SDS011;2994;51.220;4.412;2022-10-16T16:12:09;3.53;;;2.83;;
5937;SDS011;2994;51.220;4.412;2022-10-16T16:14:35;4.03;;;2.73;;
5937;SDS011;2994;51.220;4.412;2022-10-16T16:17:11;5.23;;;3.73;;
5937;SDS011;2994;51.220;4.412;2022-10-16T16:19:40;3.47;;;3.10;;
5937;SDS011;2994;51.220;4.412;2022-10-16T16:22:05;3.93;;;3.03;;
5937;SDS011;2994;51.220;4.412;2022-10-16T16:24:31;5.43;;;3.33;;
5937;SDS011;2994;51.220;4.412;2022-10-16T16:27:13;2.90;;;2.63;;
5937;SDS011;2994;51.220;4.412;2022-10-16T16:29:49;3.30;;;2.57;;
5937;SDS011;2994;51.220;4.412;2022-10-16T16:32:22;3.40;;;2.57;;
5937;SDS011;2994;51.220;4.412;2022-10-16T16:34:48;4.10;;;2.70;;
5937;SDS011;2994;51.220;4.412;2022-10-16T16:37:22;3.97;;;3.07;;
5937;SDS011;2994;51.220;4.412;2022-10-16T16:39:50;4.23;;;3.00;;
5937;SDS011;2994;51.220;4.412;2022-10-16T16:42:16;4.13;;;3.27;;
5937;SDS011;2994;51.220;4.412;2022-10-16T16:44:42;3.50;;;2.53;;
5937;SDS011;2994;51.220;4.412;2022-10-16T16:47:07;2.87;;;2.30;;
5937;SDS011;2994;51.220;4.412;2022-10-16T16:49:34;4.20;;;2.63;;
5937;SDS011;2994;51.220;4.412;2022-10-16T16:52:07;4.17;;;2.90;;
5937;SDS011;2994;51.220;4.412;2022-10-16T16:54:34;4.77;;;2.33;;
5937;SDS011;2994;51.220;4.412;2022-10-16T16:57:00;3.23;;;2.50;;
5937;SDS011;2994;51.220;4.412;2022-10-16T16:59:26;3.17;;;2.70;;
5937;SDS011;2994;51.220;4.412;2022-10-16T17:01:51;2.60;;;2.40;;
5937;SDS011;2994;51.220;4.412;2022-10-16T17:04:17;3.87;;;3.00;;
5937;SDS011;2994;51.220;4.412;2022-10-16T17:06:46;4.27;;;2.50;;
5937;SDS011;2994;51.220;4.412;2022-10-16T17:09:11;5.67;;;3.40;;
5937;SDS011;2994;51.220;4.412;2022-10-16T17:11:40;4.00;;;2.93;;
5937;SDS011;2994;51.220;4.412;2022-10-16T17:14:07;4.53;;;2.60;;
5937;SDS011;2994;51.220;4.412;2022-10-16T17:16:38;3.70;;;2.70;;
5937;SDS011;2994;51.220;4.412;2022-10-16T17:19:13;4.40;;;3.03;;
5937;SDS011;2994;51.220;4.412;2022-10-16T17:21:52;3.97;;;2.63;;
5937;SDS011;2994;51.220;4.412;2022-10-16T17:24:18;5.37;;;2.63;;
5937;SDS011;2994;51.220;4.412;2022-10-16T17:26:54;3.87;;;3.17;;
5937;SDS011;2994;51.220;4.412;2022-10-16T17:29:31;3.57;;;2.60;;
5937;SDS011;2994;51.220;4.412;2022-10-16T17:31:56;7.53;;;4.30;;
5937;SDS011;2994;51.220;4.412;2022-10-16T17:34:23;8.40;;;4.87;;
5937;SDS011;2994;51.220;4.412;2022-10-16T17:36:49;6.80;;;4.13;;
5937;SDS011;2994;51.220;4.412;2022-10-16T17:39:15;4.83;;;3.57;;
5937;SDS011;2994;51.220;4.412;2022-10-16T17:41:42;5.67;;;3.60;;
5937;SDS011;2994;51.220;4.412;2022-10-16T17:44:08;6.47;;;4.20;;
5937;SDS011;2994;51.220;4.412;2022-10-16T17:46:35;4.63;;;4.23;;
5937;SDS011;2994;51.220;4.412;2022-10-16T17:49:00;5.70;;;4.67;;
5937;SDS011;2994;51.220;4.412;2022-10-16T17:51:29;6.33;;;5.57;;
5937;SDS011;2994;51.220;4.412;2022-10-16T17:53:57;5.93;;;4.80;;
5937;SDS011;2994;51.220;4.412;2022-10-16T17:56:24;9.77;;;4.90;;
5937;SDS011;2994;51.220;4.412;2022-10-16T17:58:56;6.10;;;5.17;;
5937;SDS011;2994;51.220;4.412;2022-10-16T18:01:27;5.77;;;3.93;;
5937;SDS011;2994;51.220;4.412;2022-10-16T18:03:55;4.63;;;4.13;;
5937;SDS011;2994;51.220;4.412;2022-10-16T18:06:31;4.13;;;3.40;;